createdAt,value
2018-09-10T00:00:09.421Z,2.20
2018-09-10T00:03:12.541Z,2.00
2018-09-10T00:06:15.668Z,2.10
2018-09-10T00:09:18.738Z,2.07
2018-09-10T00:12:21.829Z,2.37
2018-09-10T00:15:24.922Z,2.30
2018-09-10T00:18:28.033Z,2.10
2018-09-10T00:21:31.097Z,2.37
2018-09-10T00:24:34.193Z,2.00
2018-09-10T00:27:37.607Z,2.00
2018-09-10T00:30:40.701Z,2.53
2018-09-10T00:33:43.778Z,2.20
2018-09-10T00:36:46.975Z,2.23
2018-09-10T00:39:50.089Z,2.10
2018-09-10T00:42:53.161Z,2.43
2018-09-10T00:45:56.482Z,2.07
2018-09-10T00:48:59.566Z,2.00
2018-09-10T00:52:02.652Z,2.30
2018-09-10T00:55:05.717Z,2.10
2018-09-10T00:58:08.852Z,2.23
2018-09-10T01:01:11.994Z,2.37
2018-09-10T01:04:15.144Z,2.20
2018-09-10T01:07:18.248Z,2.10
2018-09-10T01:10:21.519Z,1.93
2018-09-10T01:13:24.577Z,2.10
2018-09-10T01:16:27.671Z,2.20
2018-09-10T01:19:30.776Z,2.10
2018-09-10T01:22:33.853Z,2.10
2018-09-10T01:25:36.957Z,2.40
2018-09-10T01:28:40.040Z,1.90
2018-09-10T01:31:43.153Z,2.40
2018-09-10T01:34:51.673Z,2.40
2018-09-10T01:37:54.789Z,9.17
2018-09-10T01:40:57.881Z,5.63
2018-09-10T01:44:00.957Z,6.70
2018-09-10T01:47:04.049Z,2.70
2018-09-10T01:50:07.158Z,2.10
2018-09-10T01:53:10.282Z,2.23
2018-09-10T01:56:13.397Z,2.00
2018-09-10T01:59:16.491Z,2.30
2018-09-10T02:02:19.561Z,2.30
2018-09-10T02:05:22.657Z,2.33
2018-09-10T02:08:25.726Z,2.20
2018-09-10T02:11:35.361Z,1.90
2018-09-10T02:14:38.437Z,2.43
2018-09-10T02:17:41.546Z,6.40
2018-09-10T02:20:44.801Z,5.97
2018-09-10T02:23:47.880Z,3.07
2018-09-10T02:26:50.973Z,2.93
2018-09-10T02:29:54.049Z,2.23
2018-09-10T02:32:57.137Z,2.80
2018-09-10T02:36:00.227Z,4.70
2018-09-10T02:39:03.350Z,3.90
2018-09-10T02:42:06.615Z,2.43
2018-09-10T02:45:09.708Z,3.30
2018-09-10T02:48:12.849Z,2.60
2018-09-10T02:51:16.005Z,2.30
2018-09-10T02:54:19.089Z,2.50
2018-09-10T02:57:22.205Z,2.20
2018-09-10T03:00:25.817Z,2.10
2018-09-10T03:03:28.893Z,2.30
2018-09-10T03:06:31.998Z,2.63
2018-09-10T03:09:35.086Z,2.20
2018-09-10T03:12:38.168Z,2.37
2018-09-10T03:15:41.258Z,2.40
2018-09-10T03:18:44.361Z,2.20
2018-09-10T03:21:47.438Z,2.63
2018-09-10T03:24:50.629Z,2.10
2018-09-10T03:27:53.724Z,2.00
2018-09-10T03:30:56.819Z,2.10
2018-09-10T03:33:59.901Z,2.20
2018-09-10T03:37:02.994Z,2.23
2018-09-10T03:40:06.086Z,2.10
2018-09-10T03:43:09.226Z,2.10
2018-09-10T03:46:12.276Z,2.10
2018-09-10T03:49:15.348Z,1.80
2018-09-10T03:52:18.450Z,2.20
2018-09-10T03:55:21.485Z,2.20
2018-09-10T03:58:24.569Z,2.27
2018-09-10T04:01:27.633Z,2.23
2018-09-10T04:04:30.697Z,2.23
2018-09-10T04:07:33.753Z,2.30
2018-09-10T04:10:36.842Z,2.07
2018-09-10T04:13:39.900Z,2.00
2018-09-10T04:16:42.998Z,1.93
2018-09-10T04:19:46.093Z,2.07
2018-09-10T04:22:49.181Z,1.93
2018-09-10T04:25:52.312Z,2.00
2018-09-10T04:28:55.390Z,2.57
2018-09-10T04:31:58.513Z,2.63
2018-09-10T04:35:01.605Z,1.97
2018-09-10T04:38:04.697Z,2.10
2018-09-10T04:41:07.747Z,2.40
2018-09-10T04:44:10.837Z,2.40
2018-09-10T04:47:13.906Z,2.13
2018-09-10T04:50:16.973Z,2.70
2018-09-10T04:53:20.042Z,2.10
2018-09-10T04:56:23.146Z,2.00
2018-09-10T04:59:26.232Z,2.10
2018-09-10T05:02:29.328Z,2.30
2018-09-10T05:05:32.403Z,2.17
2018-09-10T05:08:35.537Z,1.97
2018-09-10T05:11:38.603Z,2.50
2018-09-10T05:14:41.673Z,2.07
2018-09-10T05:17:44.717Z,2.00
2018-09-10T05:20:47.802Z,1.90
2018-09-10T05:23:50.874Z,2.40
2018-09-10T05:26:53.949Z,2.20
2018-09-10T05:29:57.069Z,2.40
2018-09-10T05:33:00.142Z,2.20
2018-09-10T05:36:03.226Z,2.37
2018-09-10T05:39:07.376Z,2.20
2018-09-10T05:42:10.655Z,2.00
2018-09-10T05:45:14.281Z,2.50
2018-09-10T05:48:17.375Z,2.30
2018-09-10T05:51:20.466Z,1.97
2018-09-10T05:54:23.542Z,1.83
2018-09-10T05:57:26.649Z,1.80
2018-09-10T06:00:29.702Z,2.10
2018-09-10T06:03:32.801Z,1.60
2018-09-10T06:06:35.852Z,1.70
2018-09-10T06:09:39.125Z,1.83
2018-09-10T06:12:42.196Z,1.60
2018-09-10T06:15:45.303Z,2.43
2018-09-10T06:18:48.366Z,4.10
2018-09-10T06:21:51.446Z,1.90
2018-09-10T06:25:08.564Z,1.87
2018-09-10T06:28:12.434Z,1.60
2018-09-10T06:31:28.354Z,1.70
2018-09-10T06:34:31.468Z,2.47
2018-09-10T06:37:34.545Z,2.10
2018-09-10T06:40:37.629Z,2.93
2018-09-10T06:43:41.690Z,2.20
2018-09-10T06:46:44.794Z,1.77
2018-09-10T06:49:47.866Z,1.77
2018-09-10T06:52:50.934Z,2.00
2018-09-10T06:55:53.999Z,1.93
2018-09-10T06:58:57.192Z,1.67
2018-09-10T07:02:00.229Z,2.70
2018-09-10T07:05:03.357Z,4.17
2018-09-10T07:08:06.436Z,2.20
2018-09-10T07:11:09.545Z,2.07
2018-09-10T07:14:12.597Z,1.60
2018-09-10T07:17:15.680Z,2.00
2018-09-10T07:20:18.743Z,1.70
2018-09-10T07:23:21.835Z,2.00
2018-09-10T07:26:24.893Z,1.90
2018-09-10T07:29:27.981Z,2.23
2018-09-10T07:32:31.109Z,1.63
2018-09-10T07:35:34.196Z,2.20
2018-09-10T07:38:37.246Z,1.77
2018-09-10T07:41:40.921Z,1.83
2018-09-10T07:44:44.620Z,2.00
2018-09-10T07:47:47.734Z,1.90
2018-09-10T07:50:50.860Z,1.83
2018-09-10T07:53:53.948Z,1.63
2018-09-10T07:56:57.001Z,1.70
2018-09-10T08:00:00.423Z,1.80
2018-09-10T08:03:03.493Z,1.90
2018-09-10T08:06:06.563Z,1.90
2018-09-10T08:09:10.282Z,1.90
2018-09-10T08:12:13.298Z,2.00
2018-09-10T08:15:16.377Z,1.90
2018-09-10T08:18:19.461Z,2.00
2018-09-10T08:21:22.520Z,2.03
2018-09-10T08:24:25.701Z,1.80
2018-09-10T08:27:28.697Z,1.90
2018-09-10T08:30:31.959Z,2.17
2018-09-10T08:33:35.122Z,1.80
2018-09-10T08:36:38.320Z,2.00
2018-09-10T08:39:41.389Z,2.10
2018-09-10T08:42:44.502Z,1.87
2018-09-10T08:45:47.570Z,1.73
2018-09-10T08:48:50.645Z,1.63
2018-09-10T08:51:53.735Z,2.10
2018-09-10T08:54:57.083Z,2.30
2018-09-10T08:57:59.849Z,2.07
2018-09-10T09:01:03.044Z,1.97
2018-09-10T09:04:06.549Z,3.53
2018-09-10T09:07:09.618Z,2.40
2018-09-10T09:10:12.722Z,2.00
2018-09-10T09:13:15.796Z,1.90
2018-09-10T09:16:18.902Z,2.00
2018-09-10T09:19:21.990Z,1.90
2018-09-10T09:22:25.071Z,1.80
2018-09-10T09:25:28.101Z,2.00
2018-09-10T09:28:31.177Z,1.77
2018-09-10T09:31:34.261Z,1.50
2018-09-10T09:34:42.808Z,1.77
2018-09-10T09:37:51.274Z,2.10
2018-09-10T09:40:59.813Z,1.70
2018-09-10T09:44:08.258Z,1.90
2018-09-10T09:47:11.401Z,2.00
2018-09-10T09:50:14.466Z,1.60
2018-09-10T09:53:17.755Z,2.13
2018-09-10T09:56:20.837Z,1.90
2018-09-10T09:59:23.928Z,1.70
2018-09-10T10:02:32.473Z,1.60
2018-09-10T10:05:35.580Z,1.70
2018-09-10T10:08:38.818Z,1.70
2018-09-10T10:14:52.253Z,1.87
2018-09-10T10:17:55.389Z,1.90
2018-09-10T10:20:58.449Z,1.70
2018-09-10T10:24:01.554Z,1.80
2018-09-10T10:27:04.669Z,2.00
2018-09-10T10:30:07.753Z,2.00
2018-09-10T10:33:10.934Z,1.80
2018-09-10T10:36:14.006Z,1.90
2018-09-10T10:39:17.160Z,1.70
2018-09-10T10:42:20.293Z,1.73
2018-09-10T10:45:23.378Z,1.80
2018-09-10T10:48:26.453Z,1.80
2018-09-10T10:51:29.566Z,1.80
2018-09-10T10:54:32.625Z,1.70
2018-09-10T10:57:35.713Z,1.80
2018-09-10T11:00:38.781Z,1.90
2018-09-10T11:03:41.889Z,1.73
2018-09-10T11:06:44.969Z,1.70
2018-09-10T11:09:48.079Z,1.80
2018-09-10T11:12:51.185Z,1.63
2018-09-10T11:15:54.272Z,2.87
2018-09-10T11:18:57.435Z,1.93
2018-09-10T11:22:00.525Z,1.60
2018-09-10T11:25:03.820Z,1.43
2018-09-10T11:28:07.538Z,1.60
2018-09-10T11:31:10.641Z,2.20
2018-09-10T11:34:13.698Z,1.60
2018-09-10T11:37:16.833Z,1.83
2018-09-10T11:40:19.889Z,1.70
2018-09-10T11:43:22.998Z,1.67
2018-09-10T11:46:26.128Z,1.60
2018-09-10T11:49:29.190Z,1.80
2018-09-10T11:52:32.274Z,1.83
2018-09-10T11:55:35.486Z,1.70
2018-09-10T11:58:38.448Z,1.67
2018-09-10T12:01:41.555Z,1.53
2018-09-10T12:04:44.617Z,2.10
2018-09-10T12:07:47.713Z,1.53
2018-09-10T12:10:50.801Z,1.50
2018-09-10T12:13:53.886Z,1.77
2018-09-10T12:16:56.977Z,1.90
2018-09-10T12:20:00.085Z,1.70
2018-09-10T12:23:03.165Z,1.60
2018-09-10T12:26:06.428Z,1.40
2018-09-10T12:29:09.513Z,1.60
2018-09-10T12:32:12.643Z,2.00
2018-09-10T12:35:15.744Z,1.87
2018-09-10T12:38:19.029Z,1.80
2018-09-10T12:41:22.113Z,2.03
2018-09-10T12:44:25.265Z,2.20
2018-09-10T12:47:28.334Z,1.93
2018-09-10T12:50:31.433Z,1.90
2018-09-10T12:53:34.519Z,1.70
2018-09-10T12:56:37.581Z,1.70
2018-09-10T12:59:40.670Z,1.73
2018-09-10T13:02:43.758Z,1.93
2018-09-10T13:05:46.853Z,2.10
2018-09-10T13:08:50.116Z,1.87
2018-09-10T13:11:53.231Z,1.80
2018-09-10T13:14:56.302Z,2.13
2018-09-10T13:17:59.398Z,2.17
2018-09-10T13:21:02.549Z,1.97
2018-09-10T13:24:05.641Z,2.57
2018-09-10T13:27:32.845Z,1.90
2018-09-10T13:30:35.952Z,2.30
2018-09-10T13:33:39.046Z,2.00
2018-09-10T13:36:42.168Z,2.23
2018-09-10T13:39:45.241Z,2.10
2018-09-10T13:42:48.324Z,2.10
2018-09-10T13:45:51.616Z,2.37
2018-09-10T13:48:54.704Z,2.40
2018-09-10T13:51:57.809Z,3.00
2018-09-10T13:55:00.901Z,2.53
2018-09-10T13:58:04.001Z,2.03
2018-09-10T14:01:07.080Z,4.57
2018-09-10T14:04:10.169Z,2.60
2018-09-10T14:07:13.267Z,2.63
2018-09-10T14:10:16.398Z,2.50
2018-09-10T14:13:19.490Z,2.20
2018-09-10T14:16:22.587Z,2.30
2018-09-10T14:19:25.694Z,2.43
2018-09-10T14:22:28.785Z,2.30
2018-09-10T14:25:31.865Z,2.77
2018-09-10T14:28:35.040Z,2.80
2018-09-10T14:31:38.130Z,2.87
2018-09-10T14:34:41.303Z,2.90
2018-09-10T14:37:44.461Z,3.40
2018-09-10T14:40:47.541Z,3.13
2018-09-10T14:43:50.654Z,3.50
2018-09-10T14:46:53.742Z,2.90
2018-09-10T14:49:56.909Z,3.27
2018-09-10T14:53:00.002Z,3.60
2018-09-10T14:56:03.099Z,3.50
2018-09-10T14:59:06.210Z,3.33
2018-09-10T15:02:09.297Z,4.20
2018-09-10T15:05:12.377Z,3.57
2018-09-10T15:08:15.508Z,3.40
2018-09-10T15:11:18.597Z,3.60
2018-09-10T15:14:21.962Z,3.97
2018-09-10T15:17:25.033Z,5.20
2018-09-10T15:20:28.132Z,3.93
2018-09-10T15:23:31.227Z,4.30
2018-09-10T15:26:34.319Z,4.80
2018-09-10T15:29:37.433Z,5.07
2018-09-10T15:32:58.728Z,4.63
2018-09-10T15:36:01.828Z,4.23
2018-09-10T15:39:06.692Z,4.73
2018-09-10T15:42:09.805Z,8.27
2018-09-10T15:45:12.932Z,6.03
2018-09-10T15:48:16.002Z,5.30
2018-09-10T15:51:19.135Z,6.67
2018-09-10T15:54:22.232Z,5.10
2018-09-10T15:57:33.593Z,6.07
2018-09-10T16:00:36.626Z,6.53
2018-09-10T16:03:56.609Z,7.57
2018-09-10T16:06:59.695Z,5.53
2018-09-10T16:10:02.789Z,5.77
2018-09-10T16:13:09.094Z,6.00
2018-09-10T16:16:12.196Z,6.70
2018-09-10T16:19:15.270Z,6.23
2018-09-10T16:22:24.201Z,6.10
2018-09-10T16:25:27.276Z,7.03
2018-09-10T16:28:30.381Z,8.03
2018-09-10T16:31:33.493Z,6.77
2018-09-10T16:34:36.590Z,6.37
2018-09-10T16:37:39.693Z,6.07
2018-09-10T16:40:42.800Z,5.33
2018-09-10T16:43:45.854Z,6.47
2018-09-10T16:46:48.996Z,6.80
2018-09-10T16:49:52.053Z,5.60
2018-09-10T16:52:55.143Z,6.60
2018-09-10T16:55:58.246Z,6.57
2018-09-10T16:59:01.354Z,9.60
2018-09-10T17:02:04.413Z,5.80
2018-09-10T17:05:07.540Z,5.40
2018-09-10T17:08:10.589Z,5.30
2018-09-10T17:11:13.697Z,5.17
2018-09-10T17:14:16.952Z,5.50
2018-09-10T17:17:20.042Z,5.50
2018-09-10T17:20:23.217Z,5.23
2018-09-10T17:23:26.288Z,5.47
2018-09-10T17:26:29.374Z,5.27
2018-09-10T17:29:32.484Z,5.53
2018-09-10T17:32:35.541Z,6.23
2018-09-10T17:35:38.633Z,5.47
2018-09-10T17:38:41.757Z,5.93
2018-09-10T17:41:44.873Z,5.47
2018-09-10T17:44:48.059Z,5.37
2018-09-10T17:47:51.198Z,5.70
2018-09-10T17:50:54.273Z,5.50
2018-09-10T17:53:57.370Z,6.03
2018-09-10T17:57:00.429Z,6.40
2018-09-10T18:00:03.758Z,5.70
2018-09-10T18:03:07.873Z,5.80
2018-09-10T18:06:10.966Z,9.43
2018-09-10T18:09:14.022Z,6.43
2018-09-10T18:12:17.141Z,6.57
2018-09-10T18:15:20.242Z,6.60
2018-09-10T18:18:23.312Z,7.40
2018-09-10T18:21:26.382Z,6.80
2018-09-10T18:24:29.441Z,6.17
2018-09-10T18:27:32.518Z,6.53
2018-09-10T18:30:35.577Z,7.53
2018-09-10T18:33:38.653Z,6.97
2018-09-10T18:36:41.717Z,7.00
2018-09-10T18:39:44.797Z,7.67
2018-09-10T18:42:47.876Z,7.00
2018-09-10T18:45:50.983Z,6.80
2018-09-10T18:48:54.106Z,7.23
2018-09-10T18:51:57.203Z,6.97
2018-09-10T18:55:00.296Z,7.37
2018-09-10T18:58:03.366Z,8.33
2018-09-10T19:01:07.923Z,6.40
2018-09-10T19:04:11.011Z,6.83
2018-09-10T19:07:14.291Z,6.97
2018-09-10T19:10:17.504Z,7.27
2018-09-10T19:13:20.603Z,7.53
2018-09-10T19:16:23.707Z,8.37
2018-09-10T19:19:26.761Z,8.80
2018-09-10T19:22:29.849Z,7.60
2018-09-10T19:25:33.005Z,8.23
2018-09-10T19:28:36.105Z,7.77
2018-09-10T19:31:39.221Z,8.23
2018-09-10T19:34:42.302Z,12.67
2018-09-10T19:37:45.464Z,11.63
2018-09-10T19:40:48.467Z,7.77
2018-09-10T19:43:51.562Z,7.83
2018-09-10T19:46:54.630Z,8.13
2018-09-10T19:50:04.992Z,9.67
2018-09-10T19:53:08.246Z,10.13
2018-09-10T19:56:11.354Z,9.00
2018-09-10T19:59:14.412Z,9.60
2018-09-10T20:02:17.486Z,9.27
2018-09-10T20:05:20.602Z,9.70
2018-09-10T20:08:23.694Z,9.73
2018-09-10T20:11:26.788Z,25.43
2018-09-10T20:14:41.302Z,18.17
2018-09-10T20:17:44.445Z,8.37
2018-09-10T20:20:47.549Z,7.57
2018-09-10T20:23:50.619Z,8.40
2018-09-10T20:26:53.730Z,8.00
2018-09-10T20:29:56.806Z,8.47
2018-09-10T20:32:59.899Z,7.37
2018-09-10T20:36:04.084Z,8.43
2018-09-10T20:39:10.188Z,8.13
2018-09-10T20:42:13.256Z,8.37
2018-09-10T20:45:16.360Z,7.43
2018-09-10T20:48:32.638Z,7.03
2018-09-10T20:51:35.780Z,7.57
2018-09-10T20:54:38.867Z,8.67
2018-09-10T20:57:42.261Z,6.20
2018-09-10T21:00:52.097Z,6.43
2018-09-10T21:03:55.958Z,6.77
2018-09-10T21:06:59.036Z,8.60
2018-09-10T21:10:02.124Z,8.70
2018-09-10T21:13:06.040Z,8.07
2018-09-10T21:16:09.129Z,6.20
2018-09-10T21:19:12.237Z,8.00
2018-09-10T21:22:15.349Z,25.07
2018-09-10T21:25:18.444Z,8.90
2018-09-10T21:28:21.677Z,8.00
2018-09-10T21:31:24.992Z,6.80
2018-09-10T21:34:28.036Z,6.90
2018-09-10T21:37:31.097Z,7.30
2018-09-10T21:40:34.157Z,7.30
2018-09-10T21:43:37.285Z,7.43
2018-09-10T21:46:40.323Z,7.80
2018-09-10T21:49:43.410Z,7.73
2018-09-10T21:52:46.550Z,7.20
2018-09-10T21:55:49.629Z,8.13
2018-09-10T21:58:52.725Z,7.40
2018-09-10T22:01:55.813Z,8.50
2018-09-10T22:04:58.890Z,8.10
2018-09-10T22:08:01.949Z,8.07
2018-09-10T22:11:05.041Z,7.73
2018-09-10T22:14:08.324Z,8.13
2018-09-10T22:17:11.398Z,9.10
2018-09-10T22:20:14.453Z,8.27
2018-09-10T22:23:17.566Z,9.17
2018-09-10T22:26:20.621Z,7.80
2018-09-10T22:29:23.709Z,7.00
2018-09-10T22:32:26.761Z,7.50
2018-09-10T22:35:29.831Z,7.73
2018-09-10T22:38:32.906Z,7.20
2018-09-10T22:41:36.001Z,7.00
2018-09-10T22:44:39.078Z,7.10
2018-09-10T22:47:42.344Z,7.37
2018-09-10T22:50:45.419Z,7.60
2018-09-10T22:53:48.615Z,7.97
2018-09-10T22:56:51.685Z,8.50
2018-09-10T22:59:54.748Z,7.57
2018-09-10T23:02:57.837Z,7.40
2018-09-10T23:06:00.906Z,8.03
2018-09-10T23:09:05.676Z,7.57
2018-09-10T23:12:08.723Z,7.47
2018-09-10T23:15:11.810Z,7.17
2018-09-10T23:18:14.853Z,7.13
2018-09-10T23:21:17.921Z,6.63
2018-09-10T23:24:21.004Z,7.83
2018-09-10T23:27:24.112Z,7.27
2018-09-10T23:30:27.208Z,7.00
2018-09-10T23:33:30.309Z,7.70
2018-09-10T23:36:33.364Z,7.40
2018-09-10T23:39:36.462Z,7.27
2018-09-10T23:42:39.553Z,6.80
2018-09-10T23:45:42.678Z,6.60
2018-09-10T23:48:45.712Z,6.33
2018-09-10T23:51:48.961Z,6.93
2018-09-10T23:54:52.037Z,6.70
2018-09-10T23:57:55.125Z,6.97
